sensor_id;sensor_type;location;lat;lon;timestamp;temperature;humidity
17887;DHT22;9069;52.044;7.472;2022-12-29T00:01:41;12.60;99.90
17887;DHT22;9069;52.044;7.472;2022-12-29T00:04:12;12.70;99.90
17887;DHT22;9069;52.044;7.472;2022-12-29T00:06:42;12.70;99.90
17887;DHT22;9069;52.044;7.472;2022-12-29T00:09:11;12.70;99.90
17887;DHT22;9069;52.044;7.472;2022-12-29T00:11:39;12.70;99.90
17887;DHT22;9069;52.044;7.472;2022-12-29T00:14:08;12.70;99.90
17887;DHT22;9069;52.044;7.472;2022-12-29T00:16:54;12.70;99.90
17887;DHT22;9069;52.044;7.472;2022-12-29T00:19:21;12.70;99.90
17887;DHT22;9069;52.044;7.472;2022-12-29T00:22:09;12.80;99.90
17887;DHT22;9069;52.044;7.472;2022-12-29T00:24:55;12.80;99.90
17887;DHT22;9069;52.044;7.472;2022-12-29T00:27:28;12.80;99.90
17887;DHT22;9069;52.044;7.472;2022-12-29T00:30:16;12.80;99.90
17887;DHT22;9069;52.044;7.472;2022-12-29T00:38:49;12.80;99.90
17887;DHT22;9069;52.044;7.472;2022-12-29T00:41:36;12.90;99.90
17887;DHT22;9069;52.044;7.472;2022-12-29T00:44:21;12.90;99.90
17887;DHT22;9069;52.044;7.472;2022-12-29T00:46:48;12.90;99.90
17887;DHT22;9069;52.044;7.472;2022-12-29T00:49:15;12.90;99.90
17887;DHT22;9069;52.044;7.472;2022-12-29T00:52:08;12.90;99.90
17887;DHT22;9069;52.044;7.472;2022-12-29T00:54:37;12.90;99.90
17887;DHT22;9069;52.044;7.472;2022-12-29T00:57:06;12.90;99.90
17887;DHT22;9069;52.044;7.472;2022-12-29T00:59:40;12.90;99.90
17887;DHT22;9069;52.044;7.472;2022-12-29T01:02:08;12.90;99.90
17887;DHT22;9069;52.044;7.472;2022-12-29T01:04:36;12.90;99.90
17887;DHT22;9069;52.044;7.472;2022-12-29T01:07:02;13.00;99.90
17887;DHT22;9069;52.044;7.472;2022-12-29T01:09:30;13.00;99.90
17887;DHT22;9069;52.044;7.472;2022-12-29T01:12:15;12.90;99.90
17887;DHT22;9069;52.044;7.472;2022-12-29T01:14:43;13.00;99.90
17887;DHT22;9069;52.044;7.472;2022-12-29T01:17:10;13.00;99.90
17887;DHT22;9069;52.044;7.472;2022-12-29T01:19:37;13.00;99.90
17887;DHT22;9069;52.044;7.472;2022-12-29T01:22:04;13.00;99.90
17887;DHT22;9069;52.044;7.472;2022-12-29T01:24:31;13.00;99.90
17887;DHT22;9069;52.044;7.472;2022-12-29T01:26:58;13.00;99.90
17887;DHT22;9069;52.044;7.472;2022-12-29T01:29:24;13.00;99.90
17887;DHT22;9069;52.044;7.472;2022-12-29T01:31:51;13.00;99.90
17887;DHT22;9069;52.044;7.472;2022-12-29T01:34:18;13.00;99.90
17887;DHT22;9069;52.044;7.472;2022-12-29T01:36:44;13.00;99.90
17887;DHT22;9069;52.044;7.472;2022-12-29T01:39:12;13.10;99.90
17887;DHT22;9069;52.044;7.472;2022-12-29T01:41:40;13.10;99.90
17887;DHT22;9069;52.044;7.472;2022-12-29T01:47:11;13.10;99.90
17887;DHT22;9069;52.044;7.472;2022-12-29T01:49:38;13.10;99.90
17887;DHT22;9069;52.044;7.472;2022-12-29T01:52:07;13.10;99.90
17887;DHT22;9069;52.044;7.472;2022-12-29T01:54:41;13.10;99.90
17887;DHT22;9069;52.044;7.472;2022-12-29T01:57:13;13.10;99.90
17887;DHT22;9069;52.044;7.472;2022-12-29T01:59:45;13.10;99.90
17887;DHT22;9069;52.044;7.472;2022-12-29T02:02:15;13.10;99.90
17887;DHT22;9069;52.044;7.472;2022-12-29T02:04:43;13.10;99.90
17887;DHT22;9069;52.044;7.472;2022-12-29T02:07:17;13.20;99.90
17887;DHT22;9069;52.044;7.472;2022-12-29T02:09:47;13.20;99.90
17887;DHT22;9069;52.044;7.472;2022-12-29T02:12:16;13.20;99.90
17887;DHT22;9069;52.044;7.472;2022-12-29T02:14:44;13.20;99.90
17887;DHT22;9069;52.044;7.472;2022-12-29T02:25:13;13.20;99.90
17887;DHT22;9069;52.044;7.472;2022-12-29T02:30:36;13.20;99.90
17887;DHT22;9069;52.044;7.472;2022-12-29T02:33:11;13.20;99.90
17887;DHT22;9069;52.044;7.472;2022-12-29T02:35:54;13.30;99.90
17887;DHT22;9069;52.044;7.472;2022-12-29T02:44:34;13.30;99.90
17887;DHT22;9069;52.044;7.472;2022-12-29T02:47:10;13.30;99.90
17887;DHT22;9069;52.044;7.472;2022-12-29T02:50:43;13.30;99.90
17887;DHT22;9069;52.044;7.472;2022-12-29T02:52:58;13.30;99.90
17887;DHT22;9069;52.044;7.472;2022-12-29T02:55:25;13.30;99.90
17887;DHT22;9069;52.044;7.472;2022-12-29T02:58:19;13.30;99.90
17887;DHT22;9069;52.044;7.472;2022-12-29T03:03:53;13.30;99.90
17887;DHT22;9069;52.044;7.472;2022-12-29T03:09:19;13.30;99.90
17887;DHT22;9069;52.044;7.472;2022-12-29T03:11:59;13.30;99.90
17887;DHT22;9069;52.044;7.472;2022-12-29T03:14:58;13.40;99.90
17887;DHT22;9069;52.044;7.472;2022-12-29T03:20:21;13.40;99.90
17887;DHT22;9069;52.044;7.472;2022-12-29T03:22:57;13.50;99.90
17887;DHT22;9069;52.044;7.472;2022-12-29T03:25:33;13.40;99.90
17887;DHT22;9069;52.044;7.472;2022-12-29T03:28:26;13.40;99.90
17887;DHT22;9069;52.044;7.472;2022-12-29T03:30:55;13.40;99.90
17887;DHT22;9069;52.044;7.472;2022-12-29T03:33:25;13.40;99.90
17887;DHT22;9069;52.044;7.472;2022-12-29T03:36:01;13.40;99.90
17887;DHT22;9069;52.044;7.472;2022-12-29T03:38:43;13.40;99.90
17887;DHT22;9069;52.044;7.472;2022-12-29T03:41:17;13.50;99.90
17887;DHT22;9069;52.044;7.472;2022-12-29T03:43:45;13.50;99.90
17887;DHT22;9069;52.044;7.472;2022-12-29T03:46:12;13.50;99.90
17887;DHT22;9069;52.044;7.472;2022-12-29T03:48:41;13.50;99.90
17887;DHT22;9069;52.044;7.472;2022-12-29T03:51:08;13.50;99.90
17887;DHT22;9069;52.044;7.472;2022-12-29T03:53:35;13.60;99.90
17887;DHT22;9069;52.044;7.472;2022-12-29T03:56:02;13.60;99.90
17887;DHT22;9069;52.044;7.472;2022-12-29T03:58:29;13.60;99.90
17887;DHT22;9069;52.044;7.472;2022-12-29T04:01:02;13.60;99.90
17887;DHT22;9069;52.044;7.472;2022-12-29T04:03:35;13.60;99.90
17887;DHT22;9069;52.044;7.472;2022-12-29T04:06:02;13.60;99.90
17887;DHT22;9069;52.044;7.472;2022-12-29T04:08:37;13.60;99.90
17887;DHT22;9069;52.044;7.472;2022-12-29T04:11:04;13.70;99.90
17887;DHT22;9069;52.044;7.472;2022-12-29T04:13:31;13.70;99.90
17887;DHT22;9069;52.044;7.472;2022-12-29T04:15:58;13.70;99.90
17887;DHT22;9069;52.044;7.472;2022-12-29T04:18:24;13.70;99.90
17887;DHT22;9069;52.044;7.472;2022-12-29T04:20:51;13.70;99.90
17887;DHT22;9069;52.044;7.472;2022-12-29T04:23:30;13.70;99.90
17887;DHT22;9069;52.044;7.472;2022-12-29T04:25:57;13.70;99.90
17887;DHT22;9069;52.044;7.472;2022-12-29T04:28:25;13.70;99.90
17887;DHT22;9069;52.044;7.472;2022-12-29T04:31:24;13.70;99.90
17887;DHT22;9069;52.044;7.472;2022-12-29T04:33:51;13.70;99.90
17887;DHT22;9069;52.044;7.472;2022-12-29T04:36:18;13.70;99.90
17887;DHT22;9069;52.044;7.472;2022-12-29T04:38:44;13.70;99.90
17887;DHT22;9069;52.044;7.472;2022-12-29T04:41:12;13.70;99.90
17887;DHT22;9069;52.044;7.472;2022-12-29T04:43:39;13.70;99.90
17887;DHT22;9069;52.044;7.472;2022-12-29T04:46:15;13.70;99.90
17887;DHT22;9069;52.044;7.472;2022-12-29T04:48:50;13.70;99.90
17887;DHT22;9069;52.044;7.472;2022-12-29T04:51:30;13.70;99.90
17887;DHT22;9069;52.044;7.472;2022-12-29T04:53:57;13.70;99.90
17887;DHT22;9069;52.044;7.472;2022-12-29T04:56:25;13.70;99.90
17887;DHT22;9069;52.044;7.472;2022-12-29T04:58:51;13.70;99.90
17887;DHT22;9069;52.044;7.472;2022-12-29T05:01:20;13.70;99.90
17887;DHT22;9069;52.044;7.472;2022-12-29T05:03:47;13.60;99.90
17887;DHT22;9069;52.044;7.472;2022-12-29T05:06:16;13.60;99.90
17887;DHT22;9069;52.044;7.472;2022-12-29T05:08:44;13.60;99.90
17887;DHT22;9069;52.044;7.472;2022-12-29T05:11:11;13.60;99.90
17887;DHT22;9069;52.044;7.472;2022-12-29T05:13:38;13.50;99.90
17887;DHT22;9069;52.044;7.472;2022-12-29T05:16:05;13.50;99.90
17887;DHT22;9069;52.044;7.472;2022-12-29T05:18:32;13.50;99.90
17887;DHT22;9069;52.044;7.472;2022-12-29T05:20:59;13.40;99.90
17887;DHT22;9069;52.044;7.472;2022-12-29T05:23:27;13.40;99.90
17887;DHT22;9069;52.044;7.472;2022-12-29T05:26:01;13.40;99.90
17887;DHT22;9069;52.044;7.472;2022-12-29T05:28:33;13.30;99.90
17887;DHT22;9069;52.044;7.472;2022-12-29T05:31:16;13.30;99.90
17887;DHT22;9069;52.044;7.472;2022-12-29T05:33:43;13.30;99.90
17887;DHT22;9069;52.044;7.472;2022-12-29T05:36:11;13.30;99.90
17887;DHT22;9069;52.044;7.472;2022-12-29T05:38:44;13.20;99.90
17887;DHT22;9069;52.044;7.472;2022-12-29T05:41:11;13.20;99.90
17887;DHT22;9069;52.044;7.472;2022-12-29T05:43:57;13.20;99.90
17887;DHT22;9069;52.044;7.472;2022-12-29T05:46:26;13.20;99.90
17887;DHT22;9069;52.044;7.472;2022-12-29T05:49:09;13.10;99.90
17887;DHT22;9069;52.044;7.472;2022-12-29T05:51:54;13.10;99.90
17887;DHT22;9069;52.044;7.472;2022-12-29T05:54:21;13.10;99.90
17887;DHT22;9069;52.044;7.472;2022-12-29T05:56:48;13.00;99.90
17887;DHT22;9069;52.044;7.472;2022-12-29T05:59:15;13.10;99.90
17887;DHT22;9069;52.044;7.472;2022-12-29T06:01:42;13.00;99.90
17887;DHT22;9069;52.044;7.472;2022-12-29T06:04:09;13.00;99.90
17887;DHT22;9069;52.044;7.472;2022-12-29T06:06:36;13.00;99.90
17887;DHT22;9069;52.044;7.472;2022-12-29T06:09:03;13.00;99.90
17887;DHT22;9069;52.044;7.472;2022-12-29T06:11:30;13.00;99.90
17887;DHT22;9069;52.044;7.472;2022-12-29T06:13:58;12.90;99.90
17887;DHT22;9069;52.044;7.472;2022-12-29T06:16:25;12.90;99.90
17887;DHT22;9069;52.044;7.472;2022-12-29T06:18:56;12.90;99.90
17887;DHT22;9069;52.044;7.472;2022-12-29T06:21:22;12.90;99.90
17887;DHT22;9069;52.044;7.472;2022-12-29T06:23:49;12.90;99.90
17887;DHT22;9069;52.044;7.472;2022-12-29T06:26:16;12.80;99.90
17887;DHT22;9069;52.044;7.472;2022-12-29T06:28:44;12.80;99.90
17887;DHT22;9069;52.044;7.472;2022-12-29T06:31:11;12.80;99.90
17887;DHT22;9069;52.044;7.472;2022-12-29T06:33:39;12.80;99.90
17887;DHT22;9069;52.044;7.472;2022-12-29T06:36:06;12.80;99.90
17887;DHT22;9069;52.044;7.472;2022-12-29T06:38:32;12.80;99.90
17887;DHT22;9069;52.044;7.472;2022-12-29T06:41:01;12.70;99.90
17887;DHT22;9069;52.044;7.472;2022-12-29T06:43:51;12.70;99.90
17887;DHT22;9069;52.044;7.472;2022-12-29T06:46:40;12.70;99.90
17887;DHT22;9069;52.044;7.472;2022-12-29T06:49:07;12.70;99.90
17887;DHT22;9069;52.044;7.472;2022-12-29T06:51:34;12.70;99.90
17887;DHT22;9069;52.044;7.472;2022-12-29T06:54:00;12.70;99.90
17887;DHT22;9069;52.044;7.472;2022-12-29T06:56:27;12.60;99.90
17887;DHT22;9069;52.044;7.472;2022-12-29T06:58:54;12.60;99.90
17887;DHT22;9069;52.044;7.472;2022-12-29T07:01:20;12.60;99.90
17887;DHT22;9069;52.044;7.472;2022-12-29T07:03:47;12.60;99.90
17887;DHT22;9069;52.044;7.472;2022-12-29T07:06:15;12.60;99.90
17887;DHT22;9069;52.044;7.472;2022-12-29T07:08:42;12.60;99.90
17887;DHT22;9069;52.044;7.472;2022-12-29T07:11:09;12.60;99.90
17887;DHT22;9069;52.044;7.472;2022-12-29T07:13:35;12.60;99.90
17887;DHT22;9069;52.044;7.472;2022-12-29T07:16:09;12.60;99.90
17887;DHT22;9069;52.044;7.472;2022-12-29T07:18:36;12.60;99.90
17887;DHT22;9069;52.044;7.472;2022-12-29T07:21:03;12.50;99.90
17887;DHT22;9069;52.044;7.472;2022-12-29T07:23:30;12.50;99.90
17887;DHT22;9069;52.044;7.472;2022-12-29T07:26:01;12.60;99.90
17887;DHT22;9069;52.044;7.472;2022-12-29T07:28:29;12.50;99.90
17887;DHT22;9069;52.044;7.472;2022-12-29T07:30:56;12.50;99.90
17887;DHT22;9069;52.044;7.472;2022-12-29T07:33:22;12.50;99.90
17887;DHT22;9069;52.044;7.472;2022-12-29T07:35:49;12.50;99.90
17887;DHT22;9069;52.044;7.472;2022-12-29T07:38:16;12.50;99.90
17887;DHT22;9069;52.044;7.472;2022-12-29T07:40:43;12.50;99.90
17887;DHT22;9069;52.044;7.472;2022-12-29T07:43:10;12.50;99.90
17887;DHT22;9069;52.044;7.472;2022-12-29T07:45:42;12.50;99.90
17887;DHT22;9069;52.044;7.472;2022-12-29T07:48:09;12.50;99.90
17887;DHT22;9069;52.044;7.472;2022-12-29T07:50:36;12.50;99.90
17887;DHT22;9069;52.044;7.472;2022-12-29T07:53:03;12.50;99.90
17887;DHT22;9069;52.044;7.472;2022-12-29T07:55:30;12.50;99.90
17887;DHT22;9069;52.044;7.472;2022-12-29T07:57:57;12.50;99.90
17887;DHT22;9069;52.044;7.472;2022-12-29T08:00:24;12.50;99.90
17887;DHT22;9069;52.044;7.472;2022-12-29T08:02:51;12.50;99.90
17887;DHT22;9069;52.044;7.472;2022-12-29T08:05:18;12.50;99.90
17887;DHT22;9069;52.044;7.472;2022-12-29T08:07:45;12.50;99.90
17887;DHT22;9069;52.044;7.472;2022-12-29T08:10:13;12.50;99.90
17887;DHT22;9069;52.044;7.472;2022-12-29T08:12:40;12.50;99.90
17887;DHT22;9069;52.044;7.472;2022-12-29T08:15:08;12.40;99.90
17887;DHT22;9069;52.044;7.472;2022-12-29T08:17:35;12.50;99.90
17887;DHT22;9069;52.044;7.472;2022-12-29T08:20:02;12.50;99.90
17887;DHT22;9069;52.044;7.472;2022-12-29T08:22:29;12.50;99.90
17887;DHT22;9069;52.044;7.472;2022-12-29T08:24:56;12.50;99.90
17887;DHT22;9069;52.044;7.472;2022-12-29T08:27:23;12.50;99.90
17887;DHT22;9069;52.044;7.472;2022-12-29T08:29:49;12.50;99.90
17887;DHT22;9069;52.044;7.472;2022-12-29T08:32:16;12.50;99.90
17887;DHT22;9069;52.044;7.472;2022-12-29T08:34:43;12.50;99.90
17887;DHT22;9069;52.044;7.472;2022-12-29T08:37:10;12.50;99.90
17887;DHT22;9069;52.044;7.472;2022-12-29T08:39:36;12.50;99.90
17887;DHT22;9069;52.044;7.472;2022-12-29T08:42:03;12.50;99.90
17887;DHT22;9069;52.044;7.472;2022-12-29T08:44:30;12.60;99.90
17887;DHT22;9069;52.044;7.472;2022-12-29T08:46:56;12.60;99.90
17887;DHT22;9069;52.044;7.472;2022-12-29T08:49:23;12.70;99.90
17887;DHT22;9069;52.044;7.472;2022-12-29T08:51:50;12.70;99.90
17887;DHT22;9069;52.044;7.472;2022-12-29T08:54:17;12.80;99.90
17887;DHT22;9069;52.044;7.472;2022-12-29T08:56:44;12.80;99.90
17887;DHT22;9069;52.044;7.472;2022-12-29T08:59:13;12.80;99.90
17887;DHT22;9069;52.044;7.472;2022-12-29T09:01:41;12.80;99.90
17887;DHT22;9069;52.044;7.472;2022-12-29T09:04:08;12.90;99.90
17887;DHT22;9069;52.044;7.472;2022-12-29T09:06:43;12.90;99.90
17887;DHT22;9069;52.044;7.472;2022-12-29T09:09:10;13.00;99.90
17887;DHT22;9069;52.044;7.472;2022-12-29T09:11:37;13.00;99.90
17887;DHT22;9069;52.044;7.472;2022-12-29T09:14:04;13.10;99.90
17887;DHT22;9069;52.044;7.472;2022-12-29T09:16:31;13.10;99.90
17887;DHT22;9069;52.044;7.472;2022-12-29T09:18:57;13.20;99.90
17887;DHT22;9069;52.044;7.472;2022-12-29T09:21:24;13.30;99.90
17887;DHT22;9069;52.044;7.472;2022-12-29T09:23:51;13.40;99.90
17887;DHT22;9069;52.044;7.472;2022-12-29T09:26:18;13.40;99.90
17887;DHT22;9069;52.044;7.472;2022-12-29T09:28:44;13.50;99.90
17887;DHT22;9069;52.044;7.472;2022-12-29T09:31:12;13.50;99.90
17887;DHT22;9069;52.044;7.472;2022-12-29T09:33:39;13.50;99.90
17887;DHT22;9069;52.044;7.472;2022-12-29T09:36:06;13.60;99.90
17887;DHT22;9069;52.044;7.472;2022-12-29T09:38:32;13.60;99.90
17887;DHT22;9069;52.044;7.472;2022-12-29T09:41:11;13.70;99.90
17887;DHT22;9069;52.044;7.472;2022-12-29T09:48:50;14.10;99.90
17887;DHT22;9069;52.044;7.472;2022-12-29T09:51:24;14.30;99.90
17887;DHT22;9069;52.044;7.472;2022-12-29T09:53:58;14.50;99.90
17887;DHT22;9069;52.044;7.472;2022-12-29T09:56:26;14.60;99.90
17887;DHT22;9069;52.044;7.472;2022-12-29T09:59:16;14.70;99.90
17887;DHT22;9069;52.044;7.472;2022-12-29T10:01:57;14.80;99.90
17887;DHT22;9069;52.044;7.472;2022-12-29T10:04:28;14.90;99.90
17887;DHT22;9069;52.044;7.472;2022-12-29T10:07:08;15.10;99.90
17887;DHT22;9069;52.044;7.472;2022-12-29T10:10:23;15.20;99.90
17887;DHT22;9069;52.044;7.472;2022-12-29T10:13:19;15.40;99.90
17887;DHT22;9069;52.044;7.472;2022-12-29T10:16:37;15.50;99.40
17887;DHT22;9069;52.044;7.472;2022-12-29T10:19:05;15.70;99.80
17887;DHT22;9069;52.044;7.472;2022-12-29T10:22:13;15.80;99.90
17887;DHT22;9069;52.044;7.472;2022-12-29T10:24:45;15.90;99.10
17887;DHT22;9069;52.044;7.472;2022-12-29T10:27:14;16.00;99.80
17887;DHT22;9069;52.044;7.472;2022-12-29T10:29:55;16.00;99.70
17887;DHT22;9069;52.044;7.472;2022-12-29T10:32:44;16.00;99.00
17887;DHT22;9069;52.044;7.472;2022-12-29T10:35:17;16.00;98.00
17887;DHT22;9069;52.044;7.472;2022-12-29T10:38:01;15.90;98.40
17887;DHT22;9069;52.044;7.472;2022-12-29T10:40:59;15.80;97.60
17887;DHT22;9069;52.044;7.472;2022-12-29T10:43:28;15.80;97.50
17887;DHT22;9069;52.044;7.472;2022-12-29T10:46:02;15.70;99.00
17887;DHT22;9069;52.044;7.472;2022-12-29T10:48:33;15.60;98.00
17887;DHT22;9069;52.044;7.472;2022-12-29T10:51:02;15.50;98.50
17887;DHT22;9069;52.044;7.472;2022-12-29T10:53:46;15.40;98.40
17887;DHT22;9069;52.044;7.472;2022-12-29T10:56:25;15.30;97.50
17887;DHT22;9069;52.044;7.472;2022-12-29T10:58:55;15.30;97.90
17887;DHT22;9069;52.044;7.472;2022-12-29T11:01:32;15.20;98.60
17887;DHT22;9069;52.044;7.472;2022-12-29T11:04:19;15.10;98.10
17887;DHT22;9069;52.044;7.472;2022-12-29T11:06:49;15.10;97.80
17887;DHT22;9069;52.044;7.472;2022-12-29T11:09:25;15.00;98.80
17887;DHT22;9069;52.044;7.472;2022-12-29T11:17:47;14.80;97.80
17887;DHT22;9069;52.044;7.472;2022-12-29T11:20:30;14.70;98.40
17887;DHT22;9069;52.044;7.472;2022-12-29T11:22:58;14.70;98.30
17887;DHT22;9069;52.044;7.472;2022-12-29T11:25:25;14.60;99.00
17887;DHT22;9069;52.044;7.472;2022-12-29T11:27:57;14.60;99.10
17887;DHT22;9069;52.044;7.472;2022-12-29T11:30:30;14.60;98.80
17887;DHT22;9069;52.044;7.472;2022-12-29T11:32:57;14.60;99.10
17887;DHT22;9069;52.044;7.472;2022-12-29T11:38:06;14.50;98.80
17887;DHT22;9069;52.044;7.472;2022-12-29T11:40:41;14.50;99.50
17887;DHT22;9069;52.044;7.472;2022-12-29T11:43:30;14.40;99.60
17887;DHT22;9069;52.044;7.472;2022-12-29T11:45:57;14.40;99.20
17887;DHT22;9069;52.044;7.472;2022-12-29T11:48:25;14.40;99.70
17887;DHT22;9069;52.044;7.472;2022-12-29T11:50:57;14.30;99.80
17887;DHT22;9069;52.044;7.472;2022-12-29T11:53:45;14.30;99.80
17887;DHT22;9069;52.044;7.472;2022-12-29T11:56:16;14.20;99.40
17887;DHT22;9069;52.044;7.472;2022-12-29T11:58:43;14.10;99.90
17887;DHT22;9069;52.044;7.472;2022-12-29T12:01:11;14.10;99.90
17887;DHT22;9069;52.044;7.472;2022-12-29T12:04:10;14.10;99.90
17887;DHT22;9069;52.044;7.472;2022-12-29T12:06:38;14.00;99.60
17887;DHT22;9069;52.044;7.472;2022-12-29T12:09:19;13.90;99.90
17887;DHT22;9069;52.044;7.472;2022-12-29T12:11:52;14.00;99.60
17887;DHT22;9069;52.044;7.472;2022-12-29T12:14:25;14.00;99.90
17887;DHT22;9069;52.044;7.472;2022-12-29T12:17:23;13.90;99.80
17887;DHT22;9069;52.044;7.472;2022-12-29T12:19:58;13.90;99.90
17887;DHT22;9069;52.044;7.472;2022-12-29T12:22:33;13.90;99.90
17887;DHT22;9069;52.044;7.472;2022-12-29T12:25:20;13.90;99.90
17887;DHT22;9069;52.044;7.472;2022-12-29T12:28:00;13.80;99.70
17887;DHT22;9069;52.044;7.472;2022-12-29T12:30:30;13.80;99.60
17887;DHT22;9069;52.044;7.472;2022-12-29T12:36:19;13.80;99.70
17887;DHT22;9069;52.044;7.472;2022-12-29T12:47:15;13.80;99.90
17887;DHT22;9069;52.044;7.472;2022-12-29T12:58:50;13.90;99.90
17887;DHT22;9069;52.044;7.472;2022-12-29T13:07:22;13.90;99.80
17887;DHT22;9069;52.044;7.472;2022-12-29T13:10:22;13.90;99.90
17887;DHT22;9069;52.044;7.472;2022-12-29T13:18:28;14.00;99.90
17887;DHT22;9069;52.044;7.472;2022-12-29T13:21:02;14.00;99.90
17887;DHT22;9069;52.044;7.472;2022-12-29T13:23:56;14.00;99.90
17887;DHT22;9069;52.044;7.472;2022-12-29T13:26:39;14.00;99.70
17887;DHT22;9069;52.044;7.472;2022-12-29T13:36:58;14.10;99.40
17887;DHT22;9069;52.044;7.472;2022-12-29T13:39:34;14.00;99.70
17887;DHT22;9069;52.044;7.472;2022-12-29T13:42:04;14.00;99.50
17887;DHT22;9069;52.044;7.472;2022-12-29T13:44:34;14.00;99.90
17887;DHT22;9069;52.044;7.472;2022-12-29T13:49:50;14.00;98.90
17887;DHT22;9069;52.044;7.472;2022-12-29T13:55:08;14.00;99.50
17887;DHT22;9069;52.044;7.472;2022-12-29T13:58:00;14.00;98.50
17887;DHT22;9069;52.044;7.472;2022-12-29T14:00:39;14.00;98.60
17887;DHT22;9069;52.044;7.472;2022-12-29T14:06:19;13.90;98.70
17887;DHT22;9069;52.044;7.472;2022-12-29T14:08:47;13.90;98.80
17887;DHT22;9069;52.044;7.472;2022-12-29T14:11:15;13.90;99.40
17887;DHT22;9069;52.044;7.472;2022-12-29T14:13:45;13.80;99.30
17887;DHT22;9069;52.044;7.472;2022-12-29T14:16:26;13.80;99.40
17887;DHT22;9069;52.044;7.472;2022-12-29T14:18:55;13.80;98.90
17887;DHT22;9069;52.044;7.472;2022-12-29T14:21:25;13.70;99.50
17887;DHT22;9069;52.044;7.472;2022-12-29T14:26:54;13.70;98.80
17887;DHT22;9069;52.044;7.472;2022-12-29T14:31:48;13.70;99.70
17887;DHT22;9069;52.044;7.472;2022-12-29T14:39:32;13.60;99.10
17887;DHT22;9069;52.044;7.472;2022-12-29T14:44:50;13.60;99.20
17887;DHT22;9069;52.044;7.472;2022-12-29T14:47:41;13.60;99.20
17887;DHT22;9069;52.044;7.472;2022-12-29T14:50:17;13.60;99.00
17887;DHT22;9069;52.044;7.472;2022-12-29T14:55:57;13.60;99.00
17887;DHT22;9069;52.044;7.472;2022-12-29T14:58:30;13.60;99.70
17887;DHT22;9069;52.044;7.472;2022-12-29T15:00:58;13.60;99.40
17887;DHT22;9069;52.044;7.472;2022-12-29T15:03:32;13.60;99.70
17887;DHT22;9069;52.044;7.472;2022-12-29T15:08:39;13.60;99.40
17887;DHT22;9069;52.044;7.472;2022-12-29T15:11:14;13.50;99.40
17887;DHT22;9069;52.044;7.472;2022-12-29T15:13:43;13.50;99.10
17887;DHT22;9069;52.044;7.472;2022-12-29T15:16:32;13.50;99.50
17887;DHT22;9069;52.044;7.472;2022-12-29T15:19:00;13.50;98.80
17887;DHT22;9069;52.044;7.472;2022-12-29T15:21:30;13.50;99.60
17887;DHT22;9069;52.044;7.472;2022-12-29T15:23:58;13.50;99.60
17887;DHT22;9069;52.044;7.472;2022-12-29T15:26:37;13.50;99.90
17887;DHT22;9069;52.044;7.472;2022-12-29T15:29:04;13.50;99.70
17887;DHT22;9069;52.044;7.472;2022-12-29T15:31:31;13.50;99.90
17887;DHT22;9069;52.044;7.472;2022-12-29T15:34:11;13.40;99.90
17887;DHT22;9069;52.044;7.472;2022-12-29T15:36:40;13.40;99.90
17887;DHT22;9069;52.044;7.472;2022-12-29T15:41:48;13.30;99.80
17887;DHT22;9069;52.044;7.472;2022-12-29T15:44:32;13.20;99.90
17887;DHT22;9069;52.044;7.472;2022-12-29T15:47:05;13.20;99.90
17887;DHT22;9069;52.044;7.472;2022-12-29T15:49:33;13.10;99.90
17887;DHT22;9069;52.044;7.472;2022-12-29T15:52:00;13.00;99.90
17887;DHT22;9069;52.044;7.472;2022-12-29T15:54:29;13.00;99.90
17887;DHT22;9069;52.044;7.472;2022-12-29T15:56:56;12.90;99.90
17887;DHT22;9069;52.044;7.472;2022-12-29T15:59:26;12.90;99.90
17887;DHT22;9069;52.044;7.472;2022-12-29T16:01:56;12.80;99.90
17887;DHT22;9069;52.044;7.472;2022-12-29T16:04:26;12.80;99.90
17887;DHT22;9069;52.044;7.472;2022-12-29T16:07:02;12.80;99.90
17887;DHT22;9069;52.044;7.472;2022-12-29T16:12:00;12.70;99.90
17887;DHT22;9069;52.044;7.472;2022-12-29T16:17:02;12.60;99.90
17887;DHT22;9069;52.044;7.472;2022-12-29T16:19:36;12.60;99.90
17887;DHT22;9069;52.044;7.472;2022-12-29T16:22:11;12.60;99.90
17887;DHT22;9069;52.044;7.472;2022-12-29T16:24:39;12.50;99.90
17887;DHT22;9069;52.044;7.472;2022-12-29T16:27:19;12.50;99.90
17887;DHT22;9069;52.044;7.472;2022-12-29T16:29:49;12.50;99.90
17887;DHT22;9069;52.044;7.472;2022-12-29T16:32:28;12.50;99.90
17887;DHT22;9069;52.044;7.472;2022-12-29T16:35:22;12.50;99.90
17887;DHT22;9069;52.044;7.472;2022-12-29T16:38:20;12.50;99.90
17887;DHT22;9069;52.044;7.472;2022-12-29T16:40:57;12.40;99.90
17887;DHT22;9069;52.044;7.472;2022-12-29T16:43:35;12.40;99.90
17887;DHT22;9069;52.044;7.472;2022-12-29T16:46:28;12.40;99.90
17887;DHT22;9069;52.044;7.472;2022-12-29T16:48:56;12.40;99.90
17887;DHT22;9069;52.044;7.472;2022-12-29T16:51:30;12.40;99.90
17887;DHT22;9069;52.044;7.472;2022-12-29T16:53:59;12.30;99.90
17887;DHT22;9069;52.044;7.472;2022-12-29T16:56:32;12.30;99.90
17887;DHT22;9069;52.044;7.472;2022-12-29T16:59:06;12.30;99.90
17887;DHT22;9069;52.044;7.472;2022-12-29T17:01:39;12.30;99.90
17887;DHT22;9069;52.044;7.472;2022-12-29T17:04:09;12.30;99.90
17887;DHT22;9069;52.044;7.472;2022-12-29T17:06:36;12.30;99.90
17887;DHT22;9069;52.044;7.472;2022-12-29T17:09:20;12.30;99.90
17887;DHT22;9069;52.044;7.472;2022-12-29T17:11:50;12.30;99.90
17887;DHT22;9069;52.044;7.472;2022-12-29T17:14:40;12.30;99.90
17887;DHT22;9069;52.044;7.472;2022-12-29T17:17:15;12.30;99.90
17887;DHT22;9069;52.044;7.472;2022-12-29T17:19:45;12.20;99.90
17887;DHT22;9069;52.044;7.472;2022-12-29T17:22:17;12.20;99.90
17887;DHT22;9069;52.044;7.472;2022-12-29T17:24:44;12.20;99.90
17887;DHT22;9069;52.044;7.472;2022-12-29T17:27:22;12.20;99.90
17887;DHT22;9069;52.044;7.472;2022-12-29T17:29:50;12.20;99.90
17887;DHT22;9069;52.044;7.472;2022-12-29T17:32:18;12.20;99.90
17887;DHT22;9069;52.044;7.472;2022-12-29T17:34:44;12.20;99.90
17887;DHT22;9069;52.044;7.472;2022-12-29T17:39:58;12.10;99.90
17887;DHT22;9069;52.044;7.472;2022-12-29T17:42:25;12.10;99.90
17887;DHT22;9069;52.044;7.472;2022-12-29T17:44:52;12.10;99.90
17887;DHT22;9069;52.044;7.472;2022-12-29T17:47:18;12.10;99.90
17887;DHT22;9069;52.044;7.472;2022-12-29T17:49:45;12.10;99.90
17887;DHT22;9069;52.044;7.472;2022-12-29T17:52:13;12.10;99.90
17887;DHT22;9069;52.044;7.472;2022-12-29T17:54:46;12.10;99.90
17887;DHT22;9069;52.044;7.472;2022-12-29T17:57:16;12.10;99.90
17887;DHT22;9069;52.044;7.472;2022-12-29T17:59:42;12.10;99.90
17887;DHT22;9069;52.044;7.472;2022-12-29T18:02:26;12.10;99.90
17887;DHT22;9069;52.044;7.472;2022-12-29T18:04:53;12.10;99.90
17887;DHT22;9069;52.044;7.472;2022-12-29T18:07:21;12.00;99.90
17887;DHT22;9069;52.044;7.472;2022-12-29T18:09:48;12.00;99.90
17887;DHT22;9069;52.044;7.472;2022-12-29T18:12:32;12.00;99.90
17887;DHT22;9069;52.044;7.472;2022-12-29T18:15:00;12.00;99.90
17887;DHT22;9069;52.044;7.472;2022-12-29T18:17:26;12.00;99.90
17887;DHT22;9069;52.044;7.472;2022-12-29T18:19:53;12.00;99.90
17887;DHT22;9069;52.044;7.472;2022-12-29T18:22:24;11.90;99.90
17887;DHT22;9069;52.044;7.472;2022-12-29T18:24:54;11.90;99.90